Impacts TAF Board
For situational awareness. Not to be used for flight planning purposes.
IDs:

KIAH - Houston/Bush Intl, TX, US

Issued at 0520 UTC 21 Sep 2018
Updated at 0743 UTC 21 Sep 2018
Potential Impact None Slight Moderate High
Time0653Z 21/08Z 21/09Z 21/10Z 21/11Z 21/12Z 21/13Z 21/14Z 21/15Z 21/16Z 21/17Z 21/18Z 21/19Z 21/20Z>>
Type OBS PRVL PRVL PRVL PRVL PRVL PRVL PRVL PRVL PRVL PRVL
  [PRB30]  
PRVL
  [PRB30]  
PRVL
  [PRB30]  
PRVL
  [PRB30]  
VIS 10 >6 >6 >6 >6 >6 >6 >6 >6 >6 >6 >6 >6 >6
CIG 150 250 250 250 50 50 50 50 50 50 45
  [45]  
45
  [45]  
45
  [45]  
45
  [45]  
Cover OVC BKN BKN BKN BKN BKN BKN BKN BKN BKN BKN
  [BKN]  
BKN
  [BKN]  
BKN
  [BKN]  
BKN
  [BKN]  
FltCat VFR VFR VFR VFR VFR VFR VFR VFR VFR VFR VFR
  [VFR]  
VFR
  [VFR]  
VFR
  [VFR]  
VFR
  [VFR]  
WX -- -- -- -- VCSH VCSH VCSH VCSH VCSH VCSH VCTS
  [TSRA]  
VCTS
  [TSRA]  
VCTS
  [TSRA]  
VCTS
  [TSRA]  
WDir 170 170 170 170 110 110 110 110 110 110 130
[VRB]
130
[VRB]
130
[VRB]
130
[VRB]
WSpd 3 3 3 3 4 4 4 4 4 4 7
  [15]  
7
  [15]  
7
  [15]  
7
  [15]  
WGst -- -- -- -- -- -- -- -- -- -- --
  [--]  
--
  [--]  
--
  [--]  
--
  [--]  
Raw TAF
KIAH 210520Z 2106/2212 17003KT P6SM FEW025 BKN250
  FM211100 11004KT P6SM VCSH SCT035 BKN050
  FM211700 13007KT P6SM VCTS SCT035CB BKN045
  PROB30 2117/2121 VRB15KT TSRA SCT025CB BKN045
  FM212300 12009KT P6SM SCT040 BKN250
  FM220200 12007KT P6SM FEW025 BKN250
  FM220800 12005KT P6SM VCSH SCT025 BKN250


Raw METAR
KIAH 210653Z 17003KT 10SM FEW025 FEW060 OVC150 26/26 A2995 RMK AO2 SLP139 T02610256
KIAH 210553Z 17003KT 10SM BKN150 BKN250 26/26 A2996 RMK AO2 SLP143 T02610256 10272 20256 403220233 58001
KIAH 210453Z 17004KT 10SM FEW020 BKN150 BKN250 27/26 A2997 RMK AO2 SLP147 T02670256

METAR Board
Radar Display
Forecast Discussion
For situational awareness. Not to be used for flight planning purposes.